Time;durP1;ratioP1;P1;durP2;ratioP2;P2;SDS_P1;SDS_P2;PMS_P1;PMS_P2;Temp;Humidity;BMP_temperature;BMP_pressure;BME280_temperature;BME280_humidity;BME280_pressure;Samples;Min_cycle;Max_cycle;Signal;HPM_P1;HPM_P2
2023/12/17 00:01:30;;;;;;;7.07;5.10;;;1.00;75.30;;;;;;5035739;28;20033;-72
2023/12/17 00:03:55;;;;;;;10.32;7.35;;;1.00;75.30;;;;;;5053038;28;20466;-72
2023/12/17 00:06:21;;;;;;;11.10;6.70;;;1.00;75.30;;;;;;5053736;28;20045;-71
2023/12/17 00:08:48;;;;;;;8.82;5.57;;;1.00;75.20;;;;;;5053934;28;20107;-73
2023/12/17 00:11:15;;;;;;;9.30;5.07;;;1.10;75.20;;;;;;5053490;28;20079;-71
2023/12/17 00:13:41;;;;;;;7.68;4.95;;;1.00;74.90;;;;;;5052560;28;20080;-72
2023/12/17 00:16:08;;;;;;;16.17;7.70;;;1.10;75.00;;;;;;5052363;28;20071;-71
2023/12/17 00:18:34;;;;;;;13.13;5.18;;;1.10;74.70;;;;;;5052506;28;20033;-73
2023/12/17 00:21:00;;;;;;;12.80;6.50;;;1.20;74.60;;;;;;5052052;28;20029;-71
2023/12/17 00:23:26;;;;;;;10.05;4.80;;;1.20;74.70;;;;;;5052420;28;20037;-71
2023/12/17 00:25:52;;;;;;;7.20;4.80;;;1.20;74.70;;;;;;5052359;28;20045;-72
2023/12/17 00:28:18;;;;;;;8.80;6.80;;;1.20;75.00;;;;;;5052328;28;20033;-71
2023/12/17 00:30:45;;;;;;;11.88;7.35;;;1.20;75.30;;;;;;5034947;28;20044;-73
2023/12/17 00:33:11;;;;;;;17.55;6.70;;;1.20;75.70;;;;;;5052204;28;20061;-72
2023/12/17 00:35:37;;;;;;;;;;;1.20;75.90;;;;;;5052573;28;20074;-71
2023/12/17 00:38:03;;;;;;;5.93;3.55;;;1.20;75.80;;;;;;5034528;28;19913;-72
2023/12/17 00:40:29;;;;;;;7.63;6.10;;;1.30;75.90;;;;;;5051464;28;20564;-71
2023/12/17 00:42:55;;;;;;;10.35;8.00;;;1.20;76.20;;;;;;5051899;28;20033;-71
2023/12/17 00:45:21;;;;;;;9.32;6.35;;;1.30;76.60;;;;;;5053081;28;20479;-73
2023/12/17 00:47:47;;;;;;;17.30;7.47;;;1.30;76.60;;;;;;5052205;28;20028;-71
2023/12/17 00:50:13;;;;;;;10.23;5.35;;;1.20;76.60;;;;;;5051198;28;20106;-73
2023/12/17 00:52:39;;;;;;;13.75;6.38;;;1.20;76.70;;;;;;5053264;28;20033;-73
2023/12/17 00:55:06;;;;;;;11.75;6.63;;;1.20;76.80;;;;;;5051342;28;20041;-72
2023/12/17 00:57:32;;;;;;;11.30;6.38;;;1.20;76.60;;;;;;5051966;28;20036;-72
2023/12/17 00:59:58;;;;;;;;;;;1.10;76.90;;;;;;5052284;28;20071;-71
2023/12/17 01:02:25;;;;;;;6.13;2.85;;;1.10;76.90;;;;;;5051138;28;19963;-72
2023/12/17 01:04:51;;;;;;;4.97;2.08;;;1.10;76.90;;;;;;5053029;28;20052;-71
2023/12/17 01:07:17;;;;;;;5.20;2.05;;;1.10;77.00;;;;;;5034745;28;20033;-71
2023/12/17 01:09:43;;;;;;;7.97;4.03;;;1.00;77.20;;;;;;5053209;28;20045;-71
2023/12/17 01:12:09;;;;;;;5.55;3.22;;;0.90;77.30;;;;;;5051075;28;20057;-71
2023/12/17 01:14:35;;;;;;;4.68;2.58;;;0.90;77.20;;;;;;5051383;28;20045;-71
2023/12/17 01:17:03;;;;;;;9.65;2.92;;;0.90;77.20;;;;;;5051376;28;20036;-71
2023/12/17 01:19:33;;;;;;;5.28;3.45;;;0.90;77.10;;;;;;5052881;28;20051;-71
2023/12/17 01:22:00;;;;;;;4.22;2.05;;;0.90;76.60;;;;;;5050826;28;20037;-72
2023/12/17 01:24:26;;;;;;;6.22;3.65;;;0.80;77.10;;;;;;5052756;28;20060;-72
2023/12/17 01:26:52;;;;;;;6.55;3.47;;;0.80;77.30;;;;;;5052439;28;20163;-71
2023/12/17 01:29:18;;;;;;;8.95;4.15;;;0.80;77.20;;;;;;5052702;28;20036;-72
2023/12/17 01:31:44;;;;;;;5.88;3.10;;;0.80;77.10;;;;;;5050829;28;20029;-71
2023/12/17 01:34:10;;;;;;;4.53;2.55;;;0.70;77.30;;;;;;5050922;28;20045;-71
2023/12/17 01:36:36;;;;;;;5.13;3.15;;;0.70;77.50;;;;;;5050986;28;20037;-72
2023/12/17 01:39:03;;;;;;;4.30;3.05;;;0.60;77.40;;;;;;5052473;28;20056;-72
2023/12/17 01:41:29;;;;;;;3.80;1.95;;;0.60;77.50;;;;;;5051686;28;20147;-73
2023/12/17 01:43:55;;;;;;;5.05;1.92;;;0.60;77.30;;;;;;5050859;28;20051;-71
2023/12/17 01:46:21;;;;;;;10.65;3.28;;;0.60;77.20;;;;;;5052217;28;20098;-71
2023/12/17 01:48:48;;;;;;;3.45;2.75;;;0.40;76.40;;;;;;5050546;28;20037;-72
2023/12/17 01:51:15;;;;;;;3.00;1.75;;;0.40;77.00;;;;;;5033600;28;20048;-72
2023/12/17 01:53:41;;;;;;;4.63;3.15;;;0.50;77.00;;;;;;5052088;28;20059;-71
2023/12/17 01:56:08;;;;;;;4.45;2.75;;;0.50;77.00;;;;;;5050558;28;20041;-71
2023/12/17 01:58:34;;;;;;;4.00;1.90;;;0.50;76.80;;;;;;5050803;28;20067;-71
2023/12/17 02:01:03;;;;;;;4.03;3.38;;;0.40;75.70;;;;;;5051444;28;20094;-73
2023/12/17 02:03:29;;;;;;;2.38;1.40;;;0.30;76.20;;;;;;5052241;28;20053;-71
2023/12/17 02:05:55;;;;;;;3.80;2.83;;;0.30;76.60;;;;;;5050516;28;20410;-71
2023/12/17 02:08:21;;;;;;;7.22;3.15;;;0.30;76.70;;;;;;5050572;28;20474;-73
2023/12/17 02:10:47;;;;;;;5.10;2.72;;;0.30;76.60;;;;;;5049875;28;20033;-73
2023/12/17 02:13:15;;;;;;;3.80;3.15;;;0.30;76.50;;;;;;5050676;28;20045;-73
2023/12/17 02:15:41;;;;;;;3.83;1.40;;;0.30;76.40;;;;;;5050427;28;20037;-71
2023/12/17 02:18:07;;;;;;;5.97;2.75;;;0.30;76.30;;;;;;5051835;28;20494;-71
2023/12/17 02:20:36;;;;;;;3.13;2.35;;;0.30;77.10;;;;;;5050006;28;20064;-73
2023/12/17 02:23:04;;;;;;;7.40;2.22;;;0.30;77.10;;;;;;5050810;28;20033;-73
2023/12/17 02:25:31;;;;;;;4.05;2.15;;;0.30;76.10;;;;;;5033786;28;20498;-73
2023/12/17 02:27:58;;;;;;;3.25;1.95;;;0.30;76.30;;;;;;5050700;28;20043;-73
2023/12/17 02:30:24;;;;;;;9.95;3.05;;;0.20;76.20;;;;;;5049893;28;20068;-72
2023/12/17 02:32:51;;;;;;;6.65;4.20;;;0.20;76.20;;;;;;5050725;28;20033;-71
2023/12/17 02:35:17;;;;;;;5.72;3.40;;;0.10;75.60;;;;;;5051424;28;20041;-73
2023/12/17 02:37:43;;;;;;;;;;;0.10;76.00;;;;;;5052727;28;20474;-73
2023/12/17 02:40:10;;;;;;;2.83;1.45;;;0.00;75.60;;;;;;5049978;28;19966;-73
2023/12/17 02:42:36;;;;;;;6.32;2.75;;;0.00;75.60;;;;;;5033706;28;20509;-73
2023/12/17 02:45:03;;;;;;;6.85;4.63;;;0.00;75.70;;;;;;5050288;28;20044;-71
2023/12/17 02:47:29;;;;;;;5.38;3.95;;;0.00;75.20;;;;;;5033885;28;20116;-71
2023/12/17 02:49:55;;;;;;;4.55;3.10;;;0.00;75.80;;;;;;5052080;28;20437;-71
2023/12/17 02:52:21;;;;;;;7.05;3.50;;;0.00;75.80;;;;;;5049657;28;20090;-71
2023/12/17 02:54:48;;;;;;;3.88;2.30;;;0.00;75.90;;;;;;5051137;28;20435;-71
2023/12/17 02:57:15;;;;;;;6.38;2.75;;;0.00;75.90;;;;;;5050351;28;20033;-74
2023/12/17 02:59:41;;;;;;;4.03;2.80;;;-0.10;75.70;;;;;;5033600;28;20068;-71
2023/12/17 03:02:07;;;;;;;3.72;2.45;;;-0.10;75.70;;;;;;5036730;28;20375;-74
2023/12/17 03:04:33;;;;;;;5.35;2.72;;;0.00;75.90;;;;;;5055310;28;20120;-71
2023/12/17 03:06:59;;;;;;;5.18;2.85;;;0.00;75.80;;;;;;5053894;28;20056;-71
2023/12/17 03:09:25;;;;;;;5.38;3.08;;;-0.10;75.70;;;;;;5055475;28;20065;-71
2023/12/17 03:11:51;;;;;;;5.50;3.47;;;-0.10;75.60;;;;;;5036464;28;20039;-71
2023/12/17 03:14:17;;;;;;;;;;;-0.10;74.80;;;;;;5054138;28;20040;-74
2023/12/17 03:16:44;;;;;;;2.47;1.60;;;-0.10;75.20;;;;;;5053740;28;20003;-71
2023/12/17 03:19:10;;;;;;;3.00;2.10;;;-0.10;75.10;;;;;;5055036;28;20045;-74
2023/12/17 03:21:36;;;;;;;3.10;2.65;;;-0.10;75.40;;;;;;5053300;28;20108;-71
2023/12/17 03:24:02;;;;;;;5.13;2.90;;;-0.10;75.40;;;;;;5054638;28;20033;-71
2023/12/17 03:26:28;;;;;;;6.38;2.90;;;-0.10;75.60;;;;;;5053591;28;20656;-73
2023/12/17 03:28:54;;;;;;;3.67;2.13;;;-0.10;75.70;;;;;;5053331;28;20087;-74
2023/12/17 03:31:20;;;;;;;6.22;4.00;;;-0.10;75.80;;;;;;5052891;28;20060;-71
2023/12/17 03:33:46;;;;;;;8.30;4.15;;;-0.10;75.90;;;;;;5054852;28;20029;-71
2023/12/17 03:38:59;;;;;;;;;;;-0.20;75.70;;;;;;5054224;28;20037;-71
2023/12/17 03:41:28;;;;;;;12.30;5.65;;;-0.20;75.70;;;;;;5054174;28;20007;-74
2023/12/17 03:43:56;;;;;;;8.13;4.53;;;-0.20;75.70;;;;;;5054618;28;20053;-72
2023/12/17 03:46:25;;;;;;;8.48;5.90;;;-0.20;75.70;;;;;;5036352;28;20492;-71
2023/12/17 03:48:51;;;;;;;10.45;6.85;;;-0.20;75.80;;;;;;5036630;28;20124;-74
2023/12/17 03:51:18;;;;;;;12.13;5.72;;;-0.20;75.80;;;;;;5035917;28;20049;-71
2023/12/17 03:53:44;;;;;;;12.93;4.50;;;-0.20;75.30;;;;;;5054335;28;20255;-74
2023/12/17 03:56:14;;;;;;;8.68;3.17;;;-0.20;76.00;;;;;;5054005;28;20037;-74
2023/12/17 03:58:40;;;;;;;8.98;3.08;;;-0.20;76.00;;;;;;5054271;28;20056;-74
2023/12/17 04:01:07;;;;;;;;;;;-0.30;76.10;;;;;;5052962;28;20076;-71
2023/12/17 04:03:34;;;;;;;4.45;2.80;;;-0.30;75.80;;;;;;5054141;28;19921;-71
2023/12/17 04:06:05;;;;;;;4.97;4.05;;;-0.30;75.70;;;;;;5053752;28;20081;-71
2023/12/17 04:08:31;;;;;;;6.32;4.90;;;-0.30;75.80;;;;;;5052867;28;20033;-74
2023/12/17 04:10:57;;;;;;;10.63;3.50;;;-0.30;75.90;;;;;;5053228;28;20056;-74
2023/12/17 04:13:23;;;;;;;10.18;4.40;;;-0.30;75.90;;;;;;5052689;28;20091;-74
2023/12/17 04:15:49;;;;;;;8.98;5.00;;;-0.20;76.70;;;;;;5053678;28;20445;-74
2023/12/17 04:18:15;;;;;;;7.95;5.53;;;-0.20;75.70;;;;;;5053782;28;20033;-74
2023/12/17 04:20:41;;;;;;;8.77;4.25;;;-0.10;75.60;;;;;;5052063;28;20033;-74
2023/12/17 04:23:07;;;;;;;8.82;4.05;;;0.00;75.30;;;;;;5053827;28;20425;-71
2023/12/17 04:25:33;;;;;;;3.03;2.28;;;0.10;75.20;;;;;;5052247;28;20040;-74
2023/12/17 04:27:59;;;;;;;8.07;3.13;;;0.10;75.20;;;;;;5052513;28;20029;-72
2023/12/17 04:30:25;;;;;;;8.48;3.03;;;0.20;75.20;;;;;;5051478;28;20040;-74
2023/12/17 04:32:51;;;;;;;12.55;7.72;;;0.20;75.20;;;;;;5053986;28;20025;-74
2023/12/17 04:35:17;;;;;;;6.03;3.40;;;0.20;75.40;;;;;;5052399;28;20064;-74
2023/12/17 04:37:43;;;;;;;13.15;4.90;;;0.30;75.60;;;;;;5053434;28;20033;-74
2023/12/17 04:40:10;;;;;;;7.07;4.22;;;0.40;75.70;;;;;;5051554;28;20041;-71
2023/12/17 04:42:37;;;;;;;11.43;5.65;;;0.40;75.40;;;;;;5052165;28;20112;-74
2023/12/17 04:45:05;;;;;;;8.10;5.35;;;0.40;75.40;;;;;;5053588;28;20047;-74
2023/12/17 04:47:32;;;;;;;13.65;4.95;;;0.40;74.90;;;;;;5053217;28;20489;-74
2023/12/17 04:49:58;;;;;;;;;;;0.50;75.00;;;;;;5052862;28;20072;-71
2023/12/17 04:52:24;;;;;;;8.07;3.00;;;0.50;75.10;;;;;;5053109;28;19916;-74
2023/12/17 04:54:50;;;;;;;13.20;5.53;;;0.50;75.60;;;;;;5034887;28;20040;-75
2023/12/17 04:57:16;;;;;;;11.68;2.88;;;0.50;75.70;;;;;;5051847;28;20075;-74
2023/12/17 04:59:42;;;;;;;7.78;3.10;;;0.50;75.90;;;;;;5053466;28;20371;-74
2023/12/17 05:02:08;;;;;;;6.25;3.55;;;0.50;75.90;;;;;;5052553;28;20029;-71
2023/12/17 05:04:34;;;;;;;19.65;4.40;;;0.50;75.80;;;;;;5052501;28;20053;-71
2023/12/17 05:07:00;;;;;;;6.07;4.90;;;0.60;75.70;;;;;;5051721;28;20033;-73
2023/12/17 05:09:26;;;;;;;10.38;5.82;;;0.60;75.60;;;;;;5053229;28;20036;-74
2023/12/17 05:11:52;;;;;;;8.02;4.10;;;0.60;75.50;;;;;;5052507;28;20268;-74
2023/12/17 05:14:18;;;;;;;9.60;5.60;;;0.50;75.60;;;;;;5051273;28;20048;-71
2023/12/17 05:16:44;;;;;;;6.50;4.70;;;0.50;75.70;;;;;;5052732;28;20064;-74
2023/12/17 05:19:10;;;;;;;10.27;5.13;;;0.60;75.60;;;;;;5051399;28;20048;-74
2023/12/17 05:21:36;;;;;;;15.30;5.20;;;0.60;75.60;;;;;;5052395;28;20035;-74
2023/12/17 05:24:03;;;;;;;6.70;3.20;;;0.60;75.70;;;;;;5050648;28;20045;-71
2023/12/17 05:26:29;;;;;;;;;;;0.70;75.80;;;;;;5052911;28;20032;-74
2023/12/17 05:28:55;;;;;;;5.75;4.05;;;0.70;75.60;;;;;;5052732;28;19927;-74
2023/12/17 05:31:21;;;;;;;7.60;4.40;;;0.60;75.70;;;;;;5051892;28;20045;-74
2023/12/17 05:33:49;;;;;;;4.18;2.45;;;0.60;76.00;;;;;;5051348;28;20478;-74
2023/12/17 05:36:15;;;;;;;4.65;2.67;;;0.70;76.40;;;;;;5034493;28;20283;-71
2023/12/17 05:38:42;;;;;;;10.07;3.45;;;0.60;76.90;;;;;;5051179;28;20375;-71
2023/12/17 05:41:08;;;;;;;3.30;1.83;;;0.60;77.20;;;;;;5052044;28;20044;-71
2023/12/17 05:43:35;;;;;;;4.88;2.58;;;0.70;77.80;;;;;;5034213;28;20487;-74
2023/12/17 05:46:02;;;;;;;4.00;2.72;;;0.70;77.80;;;;;;5051040;28;20030;-74
2023/12/17 05:48:28;;;;;;;6.03;3.35;;;0.70;78.00;;;;;;5052026;28;20067;-71
2023/12/17 05:50:54;;;;;;;5.60;2.95;;;0.70;78.10;;;;;;5050434;28;20509;-72
2023/12/17 05:53:20;;;;;;;6.15;3.72;;;0.70;78.10;;;;;;5051071;28;20076;-74
2023/12/17 05:55:46;;;;;;;9.77;3.97;;;0.50;78.70;;;;;;5050594;28;20033;-74
2023/12/17 05:58:12;;;;;;;3.42;1.42;;;0.50;78.90;;;;;;5051955;28;20032;-74
2023/12/17 06:00:38;;;;;;;5.57;1.98;;;0.60;78.90;;;;;;5050354;28;20486;-71
2023/12/17 06:03:04;;;;;;;6.32;3.13;;;0.60;78.70;;;;;;5052272;28;20567;-72
2023/12/17 06:05:30;;;;;;;3.45;2.38;;;0.50;78.60;;;;;;5050607;28;20441;-71
2023/12/17 06:07:56;;;;;;;4.72;2.72;;;0.60;78.80;;;;;;5050848;28;20033;-72
2023/12/17 06:10:22;;;;;;;5.90;2.85;;;0.50;78.90;;;;;;5050131;28;20044;-74
2023/12/17 06:12:48;;;;;;;6.50;3.45;;;0.50;79.00;;;;;;5050779;28;20033;-71
2023/12/17 06:15:14;;;;;;;28.50;3.85;;;0.50;78.80;;;;;;5050233;28;20036;-71
2023/12/17 06:17:42;;;;;;;4.07;1.65;;;0.50;78.80;;;;;;5050792;28;20037;-75
2023/12/17 06:20:09;;;;;;;4.55;2.55;;;0.50;78.00;;;;;;5051203;28;20045;-73
2023/12/17 06:22:35;;;;;;;6.82;2.33;;;0.50;78.50;;;;;;5051936;28;20036;-71
2023/12/17 06:25:01;;;;;;;3.38;2.50;;;0.50;78.90;;;;;;5050420;28;20131;-74
2023/12/17 06:27:28;;;;;;;9.55;4.32;;;0.40;78.70;;;;;;5052006;28;20033;-71
2023/12/17 06:29:54;;;;;;;3.58;2.80;;;0.40;78.50;;;;;;5052176;28;20375;-72
2023/12/17 06:32:20;;;;;;;7.32;3.20;;;0.30;78.50;;;;;;5051347;28;20033;-74
2023/12/17 06:34:46;;;;;;;4.72;2.47;;;0.30;78.90;;;;;;5053610;28;20076;-74
2023/12/17 06:37:12;;;;;;;4.18;2.25;;;0.30;78.90;;;;;;5054601;28;20029;-71
2023/12/17 06:39:42;;;;;;;3.10;1.67;;;0.30;78.70;;;;;;5037775;28;20482;-72
2023/12/17 06:42:28;;;;;;;6.40;2.55;;;0.30;78.40;;;;;;5055010;28;20040;-71
2023/12/17 06:44:54;;;;;;;1.92;0.80;;;0.30;78.40;;;;;;5037714;28;20568;-71
2023/12/17 06:47:20;;;;;;;3.00;2.03;;;0.30;78.20;;;;;;5055554;28;20036;-71
2023/12/17 06:49:47;;;;;;;2.88;1.92;;;0.30;78.10;;;;;;5055878;28;20474;-74
2023/12/17 06:52:13;;;;;;;4.32;2.22;;;0.30;77.40;;;;;;5053633;28;20376;-73
2023/12/17 06:54:39;;;;;;;3.85;1.35;;;0.40;77.60;;;;;;5055528;28;20041;-74
2023/12/17 06:57:06;;;;;;;2.33;1.25;;;0.40;77.60;;;;;;5055446;28;20088;-72
2023/12/17 06:59:32;;;;;;;2.28;1.70;;;0.50;77.60;;;;;;5054170;28;20045;-74
2023/12/17 07:01:57;;;;;;;2.47;1.67;;;0.50;77.10;;;;;;5054794;28;20036;-74
2023/12/17 07:04:23;;;;;;;8.68;3.67;;;0.60;76.80;;;;;;5053933;28;20053;-71
2023/12/17 07:06:49;;;;;;;2.83;1.83;;;0.60;76.70;;;;;;5055219;28;20442;-74
2023/12/17 07:09:15;;;;;;;3.40;1.63;;;0.60;76.80;;;;;;5054025;28;20049;-74
2023/12/17 07:11:41;;;;;;;2.83;2.15;;;0.50;77.30;;;;;;5054823;28;20048;-72
2023/12/17 07:14:07;;;;;;;4.63;2.65;;;0.50;77.90;;;;;;5053819;28;20083;-72
2023/12/17 07:16:35;;;;;;;3.10;2.38;;;0.50;77.80;;;;;;5053542;28;20037;-74
2023/12/17 07:19:01;;;;;;;5.80;2.83;;;0.50;77.70;;;;;;5037077;28;20057;-72
2023/12/17 07:21:27;;;;;;;8.15;3.90;;;0.60;77.60;;;;;;5053281;28;20037;-74
2023/12/17 07:23:53;;;;;;;3.72;2.42;;;0.70;78.00;;;;;;5053454;28;20383;-72
2023/12/17 07:26:19;;;;;;;4.30;2.42;;;0.70;77.90;;;;;;5054789;28;20041;-71
2023/12/17 07:28:45;;;;;;;4.07;3.15;;;0.80;77.80;;;;;;5054910;28;20029;-74
2023/12/17 07:31:11;;;;;;;5.78;2.78;;;0.80;77.50;;;;;;5054249;28;20029;-71
2023/12/17 07:33:37;;;;;;;4.93;3.17;;;0.90;77.60;;;;;;5053395;28;20490;-72
2023/12/17 07:36:03;;;;;;;6.25;3.25;;;1.00;77.40;;;;;;5053239;28;20045;-71
2023/12/17 07:38:29;;;;;;;5.10;3.25;;;1.00;76.50;;;;;;5054769;28;20033;-71
2023/12/17 07:40:55;;;;;;;5.35;2.75;;;1.10;76.90;;;;;;5054101;28;20041;-74
2023/12/17 07:43:22;;;;;;;3.75;2.95;;;1.10;76.70;;;;;;5054455;28;20467;-72
2023/12/17 07:45:48;;;;;;;5.07;3.58;;;1.20;76.70;;;;;;5053624;28;20406;-74
2023/12/17 07:48:14;;;;;;;4.40;2.83;;;1.30;76.70;;;;;;5054692;28;20044;-72
2023/12/17 07:50:40;;;;;;;5.80;3.63;;;1.30;76.50;;;;;;5052710;28;20521;-74
2023/12/17 07:53:07;;;;;;;8.73;3.70;;;1.30;76.40;;;;;;5053162;28;20033;-74
2023/12/17 07:55:33;;;;;;;5.18;3.42;;;1.40;76.10;;;;;;5053722;28;20041;-74
2023/12/17 07:57:59;;;;;;;11.18;4.75;;;1.40;76.00;;;;;;5036492;28;20418;-71
2023/12/17 08:00:25;;;;;;;7.97;3.65;;;1.30;75.50;;;;;;5053351;28;20052;-71
2023/12/17 08:02:51;;;;;;;7.93;3.53;;;1.30;75.80;;;;;;5054172;28;20041;-71
2023/12/17 08:05:17;;;;;;;7.97;4.07;;;1.30;75.80;;;;;;5052729;28;20049;-71
2023/12/17 08:07:43;;;;;;;5.85;4.43;;;1.40;75.70;;;;;;5053990;28;20032;-71
2023/12/17 08:10:09;;;;;;;9.18;3.45;;;1.40;75.70;;;;;;5052164;28;20041;-72
2023/12/17 08:12:35;;;;;;;8.70;4.60;;;1.50;75.80;;;;;;5054048;28;20029;-71
2023/12/17 08:15:01;;;;;;;13.52;5.03;;;1.60;75.30;;;;;;5054153;28;20114;-74
2023/12/17 08:17:28;;;;;;;4.05;2.75;;;1.60;75.10;;;;;;5052535;28;20287;-74
2023/12/17 08:19:54;;;;;;;;;;;1.70;75.20;;;;;;5053047;28;20406;-71
2023/12/17 08:22:21;;;;;;;4.67;3.27;;;1.80;74.90;;;;;;5053575;28;20290;-72
2023/12/17 08:24:47;;;;;;;9.02;3.70;;;1.80;74.50;;;;;;5052505;28;20067;-71
2023/12/17 08:27:13;;;;;;;13.63;6.60;;;1.80;74.60;;;;;;5054048;28;20402;-72
2023/12/17 08:29:40;;;;;;;8.95;4.75;;;1.90;73.70;;;;;;5053877;28;20044;-73
2023/12/17 08:32:08;;;;;;;14.68;7.63;;;2.00;74.30;;;;;;5053118;28;20464;-74
2023/12/17 08:34:37;;;;;;;7.03;4.22;;;2.10;74.00;;;;;;5052204;28;20466;-74
2023/12/17 08:37:03;;;;;;;5.75;3.85;;;2.10;74.90;;;;;;5035701;28;20080;-74
2023/12/17 08:39:29;;;;;;;9.18;4.72;;;2.10;74.00;;;;;;5053762;28;20041;-71
2023/12/17 08:41:56;;;;;;;7.68;5.22;;;2.20;73.90;;;;;;5051761;28;20298;-71
2023/12/17 08:44:25;;;;;;;9.55;4.15;;;2.30;73.50;;;;;;5051289;28;20475;-74
2023/12/17 08:46:52;;;;;;;9.32;5.55;;;2.30;73.10;;;;;;5041792;28;20120;-71
2023/12/17 08:49:18;;;;;;;8.27;3.45;;;2.40;72.70;;;;;;5015712;28;20034;-71
2023/12/17 08:51:45;;;;;;;5.68;3.95;;;2.40;71.70;;;;;;5062426;28;20032;-74
2023/12/17 08:54:12;;;;;;;7.95;4.93;;;2.60;72.30;;;;;;5073123;28;20036;-71
2023/12/17 08:56:40;;;;;;;8.05;5.15;;;2.80;71.80;;;;;;5072822;28;20127;-74
2023/12/17 08:59:06;;;;;;;6.85;3.95;;;2.90;70.70;;;;;;5070695;28;20029;-74
2023/12/17 09:01:32;;;;;;;14.32;5.53;;;2.90;70.50;;;;;;5056893;28;20033;-75
2023/12/17 09:03:58;;;;;;;8.52;4.47;;;3.00;70.40;;;;;;5062996;28;20402;-72
2023/12/17 09:06:24;;;;;;;5.70;3.42;;;3.00;70.20;;;;;;5071478;28;20049;-71
2023/12/17 09:08:51;;;;;;;8.10;5.43;;;3.10;70.00;;;;;;5072959;28;20056;-71
2023/12/17 09:11:17;;;;;;;9.05;4.55;;;3.10;70.00;;;;;;5065620;28;20044;-71
2023/12/17 09:13:43;;;;;;;9.25;5.70;;;3.20;69.30;;;;;;5071125;28;20040;-72
2023/12/17 09:16:09;;;;;;;5.93;3.58;;;3.30;69.90;;;;;;5070568;28;20383;-73
2023/12/17 09:18:35;;;;;;;10.48;6.35;;;3.40;69.10;;;;;;5070833;28;20535;-74
2023/12/17 09:21:01;;;;;;;;;;;3.50;69.90;;;;;;5072806;28;20447;-71
2023/12/17 09:23:27;;;;;;;7.38;4.45;;;3.60;68.40;;;;;;5068872;28;19925;-73
2023/12/17 09:25:53;;;;;;;10.90;6.85;;;3.80;68.10;;;;;;5048631;28;20478;-71
2023/12/17 09:28:19;;;;;;;11.57;5.38;;;3.90;67.50;;;;;;5065583;28;20080;-73
2023/12/17 09:30:45;;;;;;;6.55;3.95;;;3.90;66.40;;;;;;5070309;28;20493;-73
2023/12/17 09:33:12;;;;;;;2.50;2.08;;;4.00;66.70;;;;;;5072561;28;20032;-71
2023/12/17 09:35:39;;;;;;;3.42;2.05;;;4.00;66.30;;;;;;5070604;28;20396;-73
2023/12/17 09:38:05;;;;;;;;;;;4.10;66.70;;;;;;5073055;28;20481;-71
2023/12/17 09:40:32;;;;;;;3.20;2.03;;;4.10;66.90;;;;;;5071683;28;19926;-71
2023/12/17 09:43:00;;;;;;;5.93;3.42;;;4.20;66.60;;;;;;5053447;28;20079;-71
2023/12/17 09:45:26;;;;;;;5.88;2.65;;;4.40;66.90;;;;;;5041340;28;20086;-71
2023/12/17 09:47:52;;;;;;;;;;;4.50;65.60;;;;;;5072997;28;20037;-71
2023/12/17 09:50:18;;;;;;;7.07;3.22;;;4.60;66.40;;;;;;5070347;28;19966;-73
2023/12/17 09:52:45;;;;;;;6.47;3.22;;;4.60;66.20;;;;;;5070968;28;20078;-71
2023/12/17 09:55:11;;;;;;;5.75;3.15;;;4.70;66.40;;;;;;5070382;28;20512;-72
2023/12/17 09:57:38;;;;;;;9.32;4.00;;;4.90;65.90;;;;;;5071050;28;20036;-71
2023/12/17 10:00:09;;;;;;;4.38;2.38;;;4.80;64.70;;;;;;5053874;28;20102;-71
2023/12/17 10:02:36;;;;;;;2.67;1.67;;;4.80;65.00;;;;;;5053948;28;20028;-73
2023/12/17 10:05:03;;;;;;;1.92;1.40;;;4.90;64.70;;;;;;5070679;28;20048;-71
2023/12/17 10:07:30;;;;;;;2.00;1.20;;;4.90;65.40;;;;;;5070860;28;20107;-73
2023/12/17 10:09:56;;;;;;;1.80;1.13;;;5.10;64.70;;;;;;5074877;28;20032;-72
2023/12/17 10:12:23;;;;;;;4.82;3.83;;;5.20;64.80;;;;;;5093126;28;20036;-71
2023/12/17 10:14:52;;;;;;;3.17;2.40;;;5.20;64.10;;;;;;5097715;28;20503;-73
2023/12/17 10:17:19;;;;;;;3.63;1.58;;;5.20;64.10;;;;;;5085312;28;20024;-73
2023/12/17 10:20:05;;;;;;;2.42;1.25;;;5.20;63.70;;;;;;5076530;28;20051;-73
2023/12/17 10:22:31;;;;;;;5.00;1.95;;;5.30;64.20;;;;;;5078433;28;20124;-73
2023/12/17 10:24:57;;;;;;;2.03;1.70;;;5.40;63.70;;;;;;5077111;28;20040;-71
2023/12/17 10:27:23;;;;;;;2.70;1.35;;;5.40;63.50;;;;;;5059697;28;20532;-73
2023/12/17 10:29:52;;;;;;;2.53;1.35;;;5.30;63.30;;;;;;5077380;28;20032;-71
2023/12/17 10:32:37;;;;;;;1.50;1.15;;;5.40;64.30;;;;;;5061173;28;20041;-75
2023/12/17 10:35:04;;;;;;;1.83;1.42;;;5.70;64.00;;;;;;5057079;28;20180;-73
2023/12/17 10:37:31;;;;;;;1.80;1.00;;;5.70;63.30;;;;;;5077102;28;20025;-73
2023/12/17 10:39:58;;;;;;;2.30;1.77;;;5.80;63.10;;;;;;5076920;28;20792;-71
2023/12/17 10:42:26;;;;;;;2.90;1.85;;;5.80;62.70;;;;;;5071581;28;20095;-72
2023/12/17 10:44:53;;;;;;;2.42;2.17;;;5.70;63.20;;;;;;5062600;28;20040;-71
2023/12/17 10:47:23;;;;;;;2.95;2.05;;;5.60;63.00;;;;;;5057070;28;20120;-71
2023/12/17 10:49:49;;;;;;;2.13;0.95;;;5.70;64.20;;;;;;5057371;28;20478;-72
2023/12/17 10:52:15;;;;;;;1.42;1.13;;;5.80;64.00;;;;;;5057967;28;20029;-71
2023/12/17 10:54:42;;;;;;;2.88;2.08;;;5.90;63.50;;;;;;5074754;28;20047;-72
2023/12/17 10:57:11;;;;;;;;;;;5.80;62.80;;;;;;5060849;28;20040;-71
2023/12/17 10:59:40;;;;;;;2.58;1.10;;;6.00;63.30;;;;;;5076371;28;19924;-71
2023/12/17 11:02:09;;;;;;;3.25;1.70;;;6.10;63.00;;;;;;5076393;28;20033;-71
2023/12/17 11:04:35;;;;;;;9.80;2.95;;;6.10;63.20;;;;;;5078074;28;20056;-71
2023/12/17 11:07:02;;;;;;;1.88;1.02;;;5.90;63.90;;;;;;5076824;28;20027;-73
2023/12/17 11:09:28;;;;;;;2.20;1.88;;;5.80;63.70;;;;;;5076905;28;20044;-71
2023/12/17 11:11:55;;;;;;;2.83;1.55;;;5.90;64.20;;;;;;5055864;28;20394;-73
2023/12/17 11:14:20;;;;;;;;;;;6.10;63.90;;;;;;5058501;28;20041;-73
2023/12/17 11:16:47;;;;;;;7.47;1.88;;;6.10;63.70;;;;;;5058636;28;20266;-71
2023/12/17 11:19:13;;;;;;;3.75;1.83;;;6.20;64.40;;;;;;5058866;28;20087;-73
2023/12/17 11:21:41;;;;;;;1.38;0.77;;;6.40;63.10;;;;;;5073213;28;20067;-72
2023/12/17 11:24:08;;;;;;;0.65;0.60;;;6.30;63.10;;;;;;5073726;28;20036;-71
2023/12/17 11:26:53;;;;;;;3.33;1.67;;;6.30;62.60;;;;;;5056215;28;20067;-73
2023/12/17 11:29:38;;;;;;;2.83;2.22;;;6.30;63.00;;;;;;5073301;28;20071;-72
2023/12/17 11:32:05;;;;;;;14.00;5.82;;;6.30;63.40;;;;;;5052949;28;20502;-73
2023/12/17 11:34:32;;;;;;;3.00;2.13;;;6.40;63.40;;;;;;5053691;28;20041;-71
2023/12/17 11:36:59;;;;;;;1.90;1.38;;;6.60;62.60;;;;;;5054487;28;20375;-72
2023/12/17 11:39:28;;;;;;;1.90;1.50;;;6.80;61.70;;;;;;5054830;28;20135;-72
2023/12/17 11:41:54;;;;;;;7.15;4.00;;;6.50;61.80;;;;;;5067967;28;20037;-75
2023/12/17 11:44:20;;;;;;;;;;;6.40;63.00;;;;;;5066538;28;20125;-73
2023/12/17 11:47:06;;;;;;;4.53;2.85;;;6.50;63.70;;;;;;5053100;28;19912;-71
2023/12/17 11:49:32;;;;;;;2.75;2.30;;;6.70;61.70;;;;;;5073327;28;20048;-73
2023/12/17 11:52:28;;;;;;;3.30;2.13;;;6.70;62.60;;;;;;5083499;28;20036;-73
2023/12/17 11:55:12;;;;;;;2.75;1.20;;;6.60;62.90;;;;;;5056161;28;20044;-70
2023/12/17 11:57:38;;;;;;;1.33;0.93;;;6.60;63.40;;;;;;5074585;28;20360;-74
2023/12/17 12:00:12;;;;;;;8.70;5.07;;;6.70;63.20;;;;;;5055678;28;20082;-73
2023/12/17 12:02:38;;;;;;;3.70;3.03;;;7.20;61.70;;;;;;5056395;28;20099;-73
2023/12/17 12:05:05;;;;;;;4.55;1.10;;;7.60;60.40;;;;;;5054231;28;20053;-73
2023/12/17 12:07:31;;;;;;;2.05;1.10;;;8.10;58.80;;;;;;5072592;28;20036;-71
2023/12/17 12:10:07;;;;;;;3.60;2.42;;;8.60;57.60;;;;;;5072957;28;20044;-71
2023/12/17 12:12:33;;;;;;;2.85;1.10;;;8.50;56.60;;;;;;5052325;28;20056;-71
2023/12/17 12:14:59;;;;;;;;;;;8.20;58.00;;;;;;5054544;28;20041;-73
2023/12/17 12:17:44;;;;;;;4.38;3.35;;;8.00;58.50;;;;;;5052563;28;19919;-71
2023/12/17 12:20:14;;;;;;;1.85;1.33;;;7.90;59.40;;;;;;5054273;28;20048;-73
2023/12/17 12:22:42;;;;;;;2.40;1.95;;;8.00;58.70;;;;;;5073847;28;20024;-73
2023/12/17 12:25:10;;;;;;;4.47;2.00;;;7.90;58.80;;;;;;5072392;28;20037;-71
2023/12/17 12:27:37;;;;;;;1.13;0.73;;;7.80;58.70;;;;;;5072641;28;20254;-73
2023/12/17 12:30:04;;;;;;;2.95;1.05;;;7.80;58.90;;;;;;5073374;28;20043;-73
2023/12/17 12:32:50;;;;;;;2.70;1.48;;;7.80;59.50;;;;;;5072265;28;20127;-71
2023/12/17 12:35:35;;;;;;;2.85;1.73;;;8.40;59.90;;;;;;5071352;28;20041;-72
2023/12/17 12:38:03;;;;;;;6.78;2.88;;;8.40;57.40;;;;;;5072413;28;20440;-73
2023/12/17 12:40:31;;;;;;;4.95;3.17;;;8.60;58.00;;;;;;5072789;28;20094;-71
2023/12/17 12:43:21;;;;;;;7.70;1.80;;;9.00;56.70;;;;;;5073350;28;20486;-71
2023/12/17 12:45:49;;;;;;;2.30;1.27;;;9.50;56.40;;;;;;5072139;28;20040;-73
2023/12/17 12:48:36;;;;;;;6.55;2.08;;;9.60;55.20;;;;;;5072119;28;20032;-73
2023/12/17 12:51:03;;;;;;;3.30;2.70;;;9.80;55.10;;;;;;5072904;28;20040;-71
2023/12/17 12:53:29;;;;;;;10.43;2.80;;;10.80;52.10;;;;;;5053761;28;20036;-71
2023/12/17 12:55:55;;;;;;;1.85;1.63;;;11.40;50.60;;;;;;5071634;28;20135;-71
2023/12/17 12:58:21;;;;;;;3.15;1.98;;;11.70;50.10;;;;;;5071806;28;20048;-73
2023/12/17 13:00:47;;;;;;;;;;;11.40;49.70;;;;;;5073177;28;20032;-73